sensor_id;sensor_type;location;lat;lon;timestamp;P1;durP1;ratioP1;P2;durP2;ratioP2
13588;SDS011;6865;52.552;13.434;2023-04-03T00:00:45;5.90;;;1.73;;
13588;SDS011;6865;52.552;13.434;2023-04-03T00:03:12;3.97;;;1.30;;
13588;SDS011;6865;52.552;13.434;2023-04-03T00:05:38;5.57;;;1.80;;
13588;SDS011;6865;52.552;13.434;2023-04-03T00:08:05;4.43;;;1.50;;
13588;SDS011;6865;52.552;13.434;2023-04-03T00:10:34;4.40;;;1.57;;
13588;SDS011;6865;52.552;13.434;2023-04-03T00:13:02;2.60;;;1.60;;
13588;SDS011;6865;52.552;13.434;2023-04-03T00:15:32;4.83;;;1.63;;
13588;SDS011;6865;52.552;13.434;2023-04-03T00:17:59;3.47;;;1.60;;
13588;SDS011;6865;52.552;13.434;2023-04-03T00:20:26;4.30;;;1.53;;
13588;SDS011;6865;52.552;13.434;2023-04-03T00:22:53;3.83;;;1.40;;
13588;SDS011;6865;52.552;13.434;2023-04-03T00:25:20;3.73;;;1.87;;
13588;SDS011;6865;52.552;13.434;2023-04-03T00:27:47;4.73;;;1.53;;
13588;SDS011;6865;52.552;13.434;2023-04-03T00:30:15;5.37;;;1.90;;
13588;SDS011;6865;52.552;13.434;2023-04-03T00:32:44;4.73;;;1.50;;
13588;SDS011;6865;52.552;13.434;2023-04-03T00:35:10;5.17;;;1.57;;
13588;SDS011;6865;52.552;13.434;2023-04-03T00:37:37;5.07;;;1.63;;
13588;SDS011;6865;52.552;13.434;2023-04-03T00:40:04;3.03;;;1.37;;
13588;SDS011;6865;52.552;13.434;2023-04-03T00:42:31;5.10;;;1.60;;
13588;SDS011;6865;52.552;13.434;2023-04-03T00:47:26;3.03;;;1.50;;
13588;SDS011;6865;52.552;13.434;2023-04-03T00:49:53;3.93;;;1.80;;
13588;SDS011;6865;52.552;13.434;2023-04-03T00:52:21;3.37;;;1.33;;
13588;SDS011;6865;52.552;13.434;2023-04-03T00:54:51;3.80;;;1.40;;
13588;SDS011;6865;52.552;13.434;2023-04-03T00:57:22;3.97;;;1.50;;
13588;SDS011;6865;52.552;13.434;2023-04-03T00:59:50;3.67;;;1.60;;
13588;SDS011;6865;52.552;13.434;2023-04-03T01:02:21;6.03;;;1.53;;
13588;SDS011;6865;52.552;13.434;2023-04-03T01:04:48;5.17;;;1.50;;
13588;SDS011;6865;52.552;13.434;2023-04-03T01:07:15;4.20;;;1.30;;
13588;SDS011;6865;52.552;13.434;2023-04-03T01:09:46;4.17;;;1.80;;
13588;SDS011;6865;52.552;13.434;2023-04-03T01:12:21;6.97;;;1.80;;
13588;SDS011;6865;52.552;13.434;2023-04-03T01:14:50;3.37;;;1.60;;
13588;SDS011;6865;52.552;13.434;2023-04-03T01:18:02;7.60;;;1.63;;
13588;SDS011;6865;52.552;13.434;2023-04-03T01:25:40;3.63;;;1.63;;
13588;SDS011;6865;52.552;13.434;2023-04-03T01:28:36;4.97;;;1.60;;
13588;SDS011;6865;52.552;13.434;2023-04-03T01:31:23;4.80;;;1.80;;
13588;SDS011;6865;52.552;13.434;2023-04-03T01:33:57;5.13;;;1.60;;
13588;SDS011;6865;52.552;13.434;2023-04-03T01:36:25;3.87;;;1.57;;
13588;SDS011;6865;52.552;13.434;2023-04-03T01:38:55;6.67;;;1.80;;
13588;SDS011;6865;52.552;13.434;2023-04-03T01:41:23;2.83;;;1.40;;
13588;SDS011;6865;52.552;13.434;2023-04-03T01:43:49;5.37;;;1.70;;
13588;SDS011;6865;52.552;13.434;2023-04-03T01:46:16;6.23;;;1.50;;
13588;SDS011;6865;52.552;13.434;2023-04-03T01:48:44;2.67;;;1.60;;
13588;SDS011;6865;52.552;13.434;2023-04-03T01:51:11;3.37;;;1.60;;
13588;SDS011;6865;52.552;13.434;2023-04-03T01:53:38;5.03;;;1.77;;
13588;SDS011;6865;52.552;13.434;2023-04-03T01:56:05;4.53;;;1.60;;
13588;SDS011;6865;52.552;13.434;2023-04-03T01:58:31;4.53;;;1.70;;
13588;SDS011;6865;52.552;13.434;2023-04-03T02:00:58;3.33;;;1.47;;
13588;SDS011;6865;52.552;13.434;2023-04-03T02:03:25;7.13;;;1.70;;
13588;SDS011;6865;52.552;13.434;2023-04-03T02:05:52;3.17;;;1.40;;
13588;SDS011;6865;52.552;13.434;2023-04-03T02:08:18;6.40;;;1.77;;
13588;SDS011;6865;52.552;13.434;2023-04-03T02:10:47;6.23;;;1.90;;
13588;SDS011;6865;52.552;13.434;2023-04-03T02:13:15;4.67;;;1.70;;
13588;SDS011;6865;52.552;13.434;2023-04-03T02:15:42;6.33;;;1.70;;
13588;SDS011;6865;52.552;13.434;2023-04-03T02:18:09;8.27;;;1.80;;
13588;SDS011;6865;52.552;13.434;2023-04-03T02:20:36;4.70;;;1.80;;
13588;SDS011;6865;52.552;13.434;2023-04-03T02:23:03;4.57;;;1.90;;
13588;SDS011;6865;52.552;13.434;2023-04-03T02:25:30;8.23;;;2.00;;
13588;SDS011;6865;52.552;13.434;2023-04-03T02:27:57;5.77;;;1.50;;
13588;SDS011;6865;52.552;13.434;2023-04-03T02:30:24;5.33;;;1.60;;
13588;SDS011;6865;52.552;13.434;2023-04-03T02:32:52;5.37;;;1.43;;
13588;SDS011;6865;52.552;13.434;2023-04-03T02:35:19;4.03;;;1.40;;
13588;SDS011;6865;52.552;13.434;2023-04-03T02:37:46;5.23;;;1.97;;
13588;SDS011;6865;52.552;13.434;2023-04-03T02:40:12;4.97;;;1.60;;
13588;SDS011;6865;52.552;13.434;2023-04-03T02:42:39;6.57;;;1.80;;
13588;SDS011;6865;52.552;13.434;2023-04-03T02:45:06;4.73;;;1.60;;
13588;SDS011;6865;52.552;13.434;2023-04-03T02:47:33;3.37;;;1.80;;
13588;SDS011;6865;52.552;13.434;2023-04-03T02:49:59;5.17;;;1.63;;
13588;SDS011;6865;52.552;13.434;2023-04-03T02:52:26;4.43;;;1.77;;
13588;SDS011;6865;52.552;13.434;2023-04-03T02:54:53;4.97;;;1.70;;
13588;SDS011;6865;52.552;13.434;2023-04-03T02:57:19;3.03;;;1.40;;
13588;SDS011;6865;52.552;13.434;2023-04-03T02:59:46;6.97;;;1.93;;
13588;SDS011;6865;52.552;13.434;2023-04-03T03:02:13;4.40;;;1.60;;
13588;SDS011;6865;52.552;13.434;2023-04-03T03:04:39;3.53;;;1.80;;
13588;SDS011;6865;52.552;13.434;2023-04-03T03:07:06;6.30;;;2.10;;
13588;SDS011;6865;52.552;13.434;2023-04-03T03:09:32;4.83;;;1.50;;
13588;SDS011;6865;52.552;13.434;2023-04-03T03:12:00;7.97;;;1.83;;
13588;SDS011;6865;52.552;13.434;2023-04-03T03:14:26;5.63;;;1.60;;
13588;SDS011;6865;52.552;13.434;2023-04-03T03:16:53;4.67;;;1.60;;
13588;SDS011;6865;52.552;13.434;2023-04-03T03:19:19;4.07;;;1.60;;
13588;SDS011;6865;52.552;13.434;2023-04-03T03:21:46;5.17;;;1.83;;
13588;SDS011;6865;52.552;13.434;2023-04-03T03:24:13;5.77;;;1.77;;
13588;SDS011;6865;52.552;13.434;2023-04-03T03:26:39;7.07;;;1.60;;
13588;SDS011;6865;52.552;13.434;2023-04-03T03:29:06;5.67;;;1.60;;
13588;SDS011;6865;52.552;13.434;2023-04-03T03:31:33;5.37;;;2.00;;
13588;SDS011;6865;52.552;13.434;2023-04-03T03:33:59;5.40;;;1.60;;
13588;SDS011;6865;52.552;13.434;2023-04-03T03:36:26;5.87;;;1.70;;
13588;SDS011;6865;52.552;13.434;2023-04-03T03:38:53;4.43;;;1.70;;
13588;SDS011;6865;52.552;13.434;2023-04-03T03:41:19;5.83;;;1.70;;
13588;SDS011;6865;52.552;13.434;2023-04-03T03:43:46;5.87;;;1.97;;
13588;SDS011;6865;52.552;13.434;2023-04-03T03:46:13;3.87;;;1.73;;
13588;SDS011;6865;52.552;13.434;2023-04-03T03:48:40;7.13;;;1.73;;
13588;SDS011;6865;52.552;13.434;2023-04-03T03:51:06;5.67;;;1.67;;
13588;SDS011;6865;52.552;13.434;2023-04-03T03:53:33;2.97;;;1.70;;
13588;SDS011;6865;52.552;13.434;2023-04-03T03:56:00;5.73;;;2.30;;
13588;SDS011;6865;52.552;13.434;2023-04-03T03:58:27;4.97;;;1.67;;
13588;SDS011;6865;52.552;13.434;2023-04-03T04:00:54;9.53;;;2.00;;
13588;SDS011;6865;52.552;13.434;2023-04-03T04:03:21;4.10;;;1.83;;
13588;SDS011;6865;52.552;13.434;2023-04-03T04:05:47;3.73;;;1.70;;
13588;SDS011;6865;52.552;13.434;2023-04-03T04:08:14;5.07;;;1.90;;
13588;SDS011;6865;52.552;13.434;2023-04-03T04:10:41;4.43;;;1.60;;
13588;SDS011;6865;52.552;13.434;2023-04-03T04:13:08;4.53;;;1.70;;
13588;SDS011;6865;52.552;13.434;2023-04-03T04:15:34;6.03;;;1.77;;
13588;SDS011;6865;52.552;13.434;2023-04-03T04:18:01;4.77;;;1.50;;
13588;SDS011;6865;52.552;13.434;2023-04-03T04:20:28;3.73;;;1.93;;
13588;SDS011;6865;52.552;13.434;2023-04-03T04:22:55;7.03;;;1.90;;
13588;SDS011;6865;52.552;13.434;2023-04-03T04:25:22;4.23;;;1.90;;
13588;SDS011;6865;52.552;13.434;2023-04-03T04:27:48;4.80;;;2.10;;
13588;SDS011;6865;52.552;13.434;2023-04-03T04:30:15;5.73;;;1.90;;
13588;SDS011;6865;52.552;13.434;2023-04-03T04:32:42;5.53;;;2.00;;
13588;SDS011;6865;52.552;13.434;2023-04-03T04:35:09;6.30;;;1.97;;
13588;SDS011;6865;52.552;13.434;2023-04-03T04:37:36;3.30;;;1.73;;
13588;SDS011;6865;52.552;13.434;2023-04-03T04:40:02;4.27;;;1.97;;
13588;SDS011;6865;52.552;13.434;2023-04-03T04:42:29;6.40;;;1.70;;
13588;SDS011;6865;52.552;13.434;2023-04-03T04:44:56;8.17;;;1.97;;
13588;SDS011;6865;52.552;13.434;2023-04-03T04:47:25;3.87;;;1.70;;
13588;SDS011;6865;52.552;13.434;2023-04-03T04:49:55;4.80;;;1.77;;
13588;SDS011;6865;52.552;13.434;2023-04-03T04:52:21;4.10;;;1.70;;
13588;SDS011;6865;52.552;13.434;2023-04-03T04:54:48;3.93;;;1.87;;
13588;SDS011;6865;52.552;13.434;2023-04-03T04:57:15;4.37;;;1.60;;
13588;SDS011;6865;52.552;13.434;2023-04-03T04:59:42;4.83;;;1.63;;
13588;SDS011;6865;52.552;13.434;2023-04-03T05:02:08;3.53;;;1.50;;
13588;SDS011;6865;52.552;13.434;2023-04-03T05:04:35;2.97;;;1.50;;
13588;SDS011;6865;52.552;13.434;2023-04-03T05:07:01;2.87;;;1.40;;
13588;SDS011;6865;52.552;13.434;2023-04-03T05:09:28;4.40;;;1.70;;
13588;SDS011;6865;52.552;13.434;2023-04-03T05:11:55;3.00;;;1.90;;
13588;SDS011;6865;52.552;13.434;2023-04-03T05:14:22;5.83;;;1.67;;
13588;SDS011;6865;52.552;13.434;2023-04-03T05:16:49;5.87;;;2.20;;
13588;SDS011;6865;52.552;13.434;2023-04-03T05:19:19;8.40;;;1.60;;
13588;SDS011;6865;52.552;13.434;2023-04-03T05:21:49;8.80;;;2.00;;
13588;SDS011;6865;52.552;13.434;2023-04-03T05:24:15;6.80;;;2.10;;
13588;SDS011;6865;52.552;13.434;2023-04-03T05:26:43;4.10;;;1.80;;
13588;SDS011;6865;52.552;13.434;2023-04-03T05:29:09;6.97;;;2.03;;
13588;SDS011;6865;52.552;13.434;2023-04-03T05:31:36;6.73;;;1.90;;
13588;SDS011;6865;52.552;13.434;2023-04-03T05:34:03;3.07;;;1.60;;
13588;SDS011;6865;52.552;13.434;2023-04-03T05:36:29;4.17;;;1.80;;
13588;SDS011;6865;52.552;13.434;2023-04-03T05:38:56;3.33;;;1.60;;
13588;SDS011;6865;52.552;13.434;2023-04-03T05:41:23;5.60;;;2.00;;
13588;SDS011;6865;52.552;13.434;2023-04-03T05:43:50;4.77;;;1.70;;
13588;SDS011;6865;52.552;13.434;2023-04-03T05:46:18;4.70;;;2.03;;
13588;SDS011;6865;52.552;13.434;2023-04-03T05:48:46;4.77;;;1.80;;
13588;SDS011;6865;52.552;13.434;2023-04-03T05:51:23;6.97;;;2.20;;
13588;SDS011;6865;52.552;13.434;2023-04-03T05:54:17;3.70;;;1.57;;
13588;SDS011;6865;52.552;13.434;2023-04-03T05:56:52;4.30;;;2.17;;
13588;SDS011;6865;52.552;13.434;2023-04-03T05:59:19;6.37;;;2.30;;
13588;SDS011;6865;52.552;13.434;2023-04-03T06:01:47;6.43;;;2.10;;
13588;SDS011;6865;52.552;13.434;2023-04-03T06:04:14;4.97;;;2.30;;
13588;SDS011;6865;52.552;13.434;2023-04-03T06:06:54;4.37;;;2.03;;
13588;SDS011;6865;52.552;13.434;2023-04-03T06:09:24;5.37;;;2.10;;
13588;SDS011;6865;52.552;13.434;2023-04-03T06:11:52;2.83;;;1.40;;
13588;SDS011;6865;52.552;13.434;2023-04-03T06:14:19;3.43;;;1.60;;
13588;SDS011;6865;52.552;13.434;2023-04-03T06:16:46;4.33;;;1.60;;
13588;SDS011;6865;52.552;13.434;2023-04-03T06:19:13;4.93;;;1.77;;
13588;SDS011;6865;52.552;13.434;2023-04-03T06:21:40;4.93;;;1.50;;
13588;SDS011;6865;52.552;13.434;2023-04-03T06:24:06;6.33;;;1.73;;
13588;SDS011;6865;52.552;13.434;2023-04-03T06:26:34;4.27;;;1.53;;
13588;SDS011;6865;52.552;13.434;2023-04-03T06:29:01;4.63;;;1.30;;
13588;SDS011;6865;52.552;13.434;2023-04-03T06:31:28;5.80;;;1.67;;
13588;SDS011;6865;52.552;13.434;2023-04-03T06:33:56;5.73;;;1.80;;
13588;SDS011;6865;52.552;13.434;2023-04-03T06:36:23;5.13;;;1.40;;
13588;SDS011;6865;52.552;13.434;2023-04-03T06:38:49;6.90;;;2.03;;
13588;SDS011;6865;52.552;13.434;2023-04-03T06:41:16;4.53;;;1.73;;
13588;SDS011;6865;52.552;13.434;2023-04-03T06:43:43;4.57;;;1.60;;
13588;SDS011;6865;52.552;13.434;2023-04-03T06:46:14;5.93;;;1.67;;
13588;SDS011;6865;52.552;13.434;2023-04-03T06:48:43;3.87;;;1.60;;
13588;SDS011;6865;52.552;13.434;2023-04-03T06:51:15;6.00;;;2.37;;
13588;SDS011;6865;52.552;13.434;2023-04-03T06:53:44;4.47;;;1.80;;
13588;SDS011;6865;52.552;13.434;2023-04-03T06:56:12;4.00;;;1.90;;
13588;SDS011;6865;52.552;13.434;2023-04-03T06:58:39;2.50;;;1.43;;
13588;SDS011;6865;52.552;13.434;2023-04-03T07:01:07;2.33;;;1.40;;
13588;SDS011;6865;52.552;13.434;2023-04-03T07:03:35;3.63;;;1.70;;
13588;SDS011;6865;52.552;13.434;2023-04-03T07:06:03;3.53;;;1.60;;
13588;SDS011;6865;52.552;13.434;2023-04-03T07:08:32;3.57;;;1.70;;
13588;SDS011;6865;52.552;13.434;2023-04-03T07:11:00;3.30;;;1.40;;
13588;SDS011;6865;52.552;13.434;2023-04-03T07:13:27;4.17;;;1.10;;
13588;SDS011;6865;52.552;13.434;2023-04-03T07:15:54;3.43;;;1.37;;
13588;SDS011;6865;52.552;13.434;2023-04-03T07:18:20;4.67;;;1.50;;
13588;SDS011;6865;52.552;13.434;2023-04-03T07:20:47;3.60;;;1.20;;
13588;SDS011;6865;52.552;13.434;2023-04-03T07:23:14;2.87;;;1.50;;
13588;SDS011;6865;52.552;13.434;2023-04-03T07:25:48;2.50;;;1.20;;
13588;SDS011;6865;52.552;13.434;2023-04-03T07:28:16;3.97;;;1.57;;
13588;SDS011;6865;52.552;13.434;2023-04-03T07:30:48;4.10;;;1.40;;
13588;SDS011;6865;52.552;13.434;2023-04-03T07:33:20;5.90;;;1.67;;
13588;SDS011;6865;52.552;13.434;2023-04-03T07:35:49;2.37;;;1.20;;
13588;SDS011;6865;52.552;13.434;2023-04-03T07:38:16;3.10;;;1.53;;
13588;SDS011;6865;52.552;13.434;2023-04-03T07:40:47;4.13;;;1.27;;
13588;SDS011;6865;52.552;13.434;2023-04-03T07:43:16;4.87;;;1.50;;
13588;SDS011;6865;52.552;13.434;2023-04-03T07:45:43;4.23;;;1.97;;
13588;SDS011;6865;52.552;13.434;2023-04-03T07:48:11;6.27;;;1.53;;
13588;SDS011;6865;52.552;13.434;2023-04-03T07:50:41;5.10;;;1.43;;
13588;SDS011;6865;52.552;13.434;2023-04-03T07:53:07;4.53;;;1.20;;
13588;SDS011;6865;52.552;13.434;2023-04-03T07:55:34;5.03;;;1.83;;
13588;SDS011;6865;52.552;13.434;2023-04-03T07:58:06;5.37;;;1.00;;
13588;SDS011;6865;52.552;13.434;2023-04-03T08:00:33;2.70;;;1.00;;
13588;SDS011;6865;52.552;13.434;2023-04-03T08:03:00;2.80;;;1.00;;
13588;SDS011;6865;52.552;13.434;2023-04-03T08:05:26;2.97;;;1.10;;
13588;SDS011;6865;52.552;13.434;2023-04-03T08:07:53;3.17;;;1.10;;
13588;SDS011;6865;52.552;13.434;2023-04-03T08:10:20;6.10;;;1.23;;
13588;SDS011;6865;52.552;13.434;2023-04-03T08:12:47;4.00;;;1.30;;
13588;SDS011;6865;52.552;13.434;2023-04-03T08:15:13;3.43;;;1.20;;
13588;SDS011;6865;52.552;13.434;2023-04-03T08:17:40;3.57;;;1.37;;
13588;SDS011;6865;52.552;13.434;2023-04-03T08:20:07;3.50;;;1.20;;
13588;SDS011;6865;52.552;13.434;2023-04-03T08:22:35;7.63;;;1.50;;
13588;SDS011;6865;52.552;13.434;2023-04-03T08:25:02;3.13;;;1.37;;
13588;SDS011;6865;52.552;13.434;2023-04-03T08:27:29;1.93;;;0.97;;
13588;SDS011;6865;52.552;13.434;2023-04-03T08:29:56;2.30;;;1.30;;
13588;SDS011;6865;52.552;13.434;2023-04-03T08:32:23;4.63;;;1.50;;
13588;SDS011;6865;52.552;13.434;2023-04-03T08:34:50;3.17;;;1.40;;
13588;SDS011;6865;52.552;13.434;2023-04-03T08:37:17;4.03;;;1.10;;
13588;SDS011;6865;52.552;13.434;2023-04-03T08:39:45;2.90;;;1.40;;
13588;SDS011;6865;52.552;13.434;2023-04-03T08:42:35;3.73;;;1.17;;
13588;SDS011;6865;52.552;13.434;2023-04-03T08:45:22;2.97;;;1.13;;
13588;SDS011;6865;52.552;13.434;2023-04-03T08:48:12;2.93;;;1.30;;
13588;SDS011;6865;52.552;13.434;2023-04-03T08:50:47;2.57;;;1.20;;
13588;SDS011;6865;52.552;13.434;2023-04-03T08:53:19;3.60;;;1.23;;
13588;SDS011;6865;52.552;13.434;2023-04-03T08:55:49;2.07;;;1.17;;
13588;SDS011;6865;52.552;13.434;2023-04-03T08:58:30;2.93;;;1.20;;
13588;SDS011;6865;52.552;13.434;2023-04-03T09:01:30;4.20;;;1.90;;
13588;SDS011;6865;52.552;13.434;2023-04-03T09:04:11;2.50;;;1.23;;
13588;SDS011;6865;52.552;13.434;2023-04-03T09:06:40;1.67;;;1.10;;
13588;SDS011;6865;52.552;13.434;2023-04-03T09:09:36;3.43;;;1.27;;
13588;SDS011;6865;52.552;13.434;2023-04-03T09:12:21;3.37;;;1.37;;
13588;SDS011;6865;52.552;13.434;2023-04-03T09:15:04;2.07;;;1.10;;
13588;SDS011;6865;52.552;13.434;2023-04-03T09:17:57;1.97;;;1.20;;
13588;SDS011;6865;52.552;13.434;2023-04-03T09:20:46;3.47;;;1.33;;
13588;SDS011;6865;52.552;13.434;2023-04-03T09:23:26;3.10;;;1.10;;
13588;SDS011;6865;52.552;13.434;2023-04-03T09:25:56;2.90;;;1.23;;
13588;SDS011;6865;52.552;13.434;2023-04-03T09:28:30;2.23;;;1.10;;
13588;SDS011;6865;52.552;13.434;2023-04-03T09:33:55;2.73;;;1.20;;
13588;SDS011;6865;52.552;13.434;2023-04-03T09:36:40;3.17;;;1.10;;
13588;SDS011;6865;52.552;13.434;2023-04-03T09:39:14;3.43;;;1.00;;
13588;SDS011;6865;52.552;13.434;2023-04-03T09:41:54;4.30;;;1.30;;
13588;SDS011;6865;52.552;13.434;2023-04-03T09:44:28;2.43;;;1.10;;
13588;SDS011;6865;52.552;13.434;2023-04-03T09:46:56;3.00;;;1.10;;
13588;SDS011;6865;52.552;13.434;2023-04-03T09:49:23;1.70;;;1.20;;
13588;SDS011;6865;52.552;13.434;2023-04-03T09:51:53;1.87;;;1.27;;
13588;SDS011;6865;52.552;13.434;2023-04-03T09:54:30;5.57;;;1.40;;
13588;SDS011;6865;52.552;13.434;2023-04-03T09:57:08;3.73;;;1.37;;
13588;SDS011;6865;52.552;13.434;2023-04-03T09:59:59;2.93;;;1.30;;
13588;SDS011;6865;52.552;13.434;2023-04-03T10:02:30;4.10;;;1.10;;
13588;SDS011;6865;52.552;13.434;2023-04-03T10:05:00;2.60;;;1.33;;
13588;SDS011;6865;52.552;13.434;2023-04-03T10:07:33;4.97;;;1.50;;
13588;SDS011;6865;52.552;13.434;2023-04-03T10:10:14;2.73;;;1.30;;
13588;SDS011;6865;52.552;13.434;2023-04-03T10:12:44;2.67;;;1.17;;
13588;SDS011;6865;52.552;13.434;2023-04-03T10:15:11;4.20;;;1.10;;
13588;SDS011;6865;52.552;13.434;2023-04-03T10:17:49;3.57;;;1.00;;
13588;SDS011;6865;52.552;13.434;2023-04-03T10:20:29;2.53;;;1.13;;
13588;SDS011;6865;52.552;13.434;2023-04-03T10:23:28;3.77;;;1.37;;
13588;SDS011;6865;52.552;13.434;2023-04-03T10:26:17;3.43;;;1.50;;
13588;SDS011;6865;52.552;13.434;2023-04-03T10:29:28;1.90;;;1.20;;
13588;SDS011;6865;52.552;13.434;2023-04-03T10:32:10;2.63;;;1.30;;
13588;SDS011;6865;52.552;13.434;2023-04-03T10:35:17;3.13;;;1.10;;
13588;SDS011;6865;52.552;13.434;2023-04-03T10:37:56;2.90;;;1.10;;
13588;SDS011;6865;52.552;13.434;2023-04-03T10:40:43;3.83;;;1.30;;
13588;SDS011;6865;52.552;13.434;2023-04-03T10:46:00;5.33;;;1.30;;
13588;SDS011;6865;52.552;13.434;2023-04-03T10:48:44;4.40;;;1.10;;
13588;SDS011;6865;52.552;13.434;2023-04-03T10:51:31;2.40;;;1.17;;
13588;SDS011;6865;52.552;13.434;2023-04-03T10:54:13;2.30;;;0.80;;
13588;SDS011;6865;52.552;13.434;2023-04-03T10:56:57;2.90;;;1.10;;
13588;SDS011;6865;52.552;13.434;2023-04-03T10:59:40;1.97;;;1.03;;
13588;SDS011;6865;52.552;13.434;2023-04-03T11:02:27;1.70;;;1.10;;
13588;SDS011;6865;52.552;13.434;2023-04-03T11:05:04;1.93;;;1.10;;
13588;SDS011;6865;52.552;13.434;2023-04-03T11:07:43;3.33;;;1.20;;
13588;SDS011;6865;52.552;13.434;2023-04-03T11:10:30;1.83;;;0.93;;
13588;SDS011;6865;52.552;13.434;2023-04-03T11:13:08;3.70;;;1.07;;
13588;SDS011;6865;52.552;13.434;2023-04-03T11:15:39;3.57;;;1.20;;
13588;SDS011;6865;52.552;13.434;2023-04-03T11:18:11;4.73;;;1.10;;
13588;SDS011;6865;52.552;13.434;2023-04-03T11:20:47;1.37;;;0.90;;
13588;SDS011;6865;52.552;13.434;2023-04-03T11:23:25;1.83;;;0.90;;
13588;SDS011;6865;52.552;13.434;2023-04-03T11:26:01;3.13;;;1.37;;
13588;SDS011;6865;52.552;13.434;2023-04-03T11:28:34;2.30;;;1.10;;
13588;SDS011;6865;52.552;13.434;2023-04-03T11:31:15;2.70;;;1.00;;
13588;SDS011;6865;52.552;13.434;2023-04-03T11:34:19;3.03;;;1.30;;
13588;SDS011;6865;52.552;13.434;2023-04-03T11:37:00;3.10;;;1.43;;
13588;SDS011;6865;52.552;13.434;2023-04-03T11:39:31;2.50;;;1.20;;
13588;SDS011;6865;52.552;13.434;2023-04-03T11:42:13;1.33;;;0.93;;
13588;SDS011;6865;52.552;13.434;2023-04-03T11:48:01;2.27;;;1.10;;
13588;SDS011;6865;52.552;13.434;2023-04-03T11:50:46;2.90;;;1.33;;
13588;SDS011;6865;52.552;13.434;2023-04-03T11:58:17;3.63;;;2.10;;
13588;SDS011;6865;52.552;13.434;2023-04-03T12:00:49;2.80;;;1.50;;
13588;SDS011;6865;52.552;13.434;2023-04-03T12:06:41;1.80;;;1.17;;
13588;SDS011;6865;52.552;13.434;2023-04-03T12:08:44;3.30;;;1.40;;
13588;SDS011;6865;52.552;13.434;2023-04-03T12:16:23;3.30;;;1.17;;
13588;SDS011;6865;52.552;13.434;2023-04-03T12:21:23;3.00;;;1.20;;
13588;SDS011;6865;52.552;13.434;2023-04-03T12:26:51;2.50;;;1.10;;
13588;SDS011;6865;52.552;13.434;2023-04-03T12:32:36;4.13;;;1.30;;
13588;SDS011;6865;52.552;13.434;2023-04-03T12:40:29;2.50;;;1.40;;
13588;SDS011;6865;52.552;13.434;2023-04-03T12:48:31;2.37;;;1.10;;
13588;SDS011;6865;52.552;13.434;2023-04-03T12:51:28;2.43;;;1.10;;
13588;SDS011;6865;52.552;13.434;2023-04-03T12:56:41;2.93;;;1.07;;
13588;SDS011;6865;52.552;13.434;2023-04-03T12:59:19;2.97;;;1.20;;
13588;SDS011;6865;52.552;13.434;2023-04-03T13:02:01;3.77;;;1.40;;
13588;SDS011;6865;52.552;13.434;2023-04-03T13:04:30;2.50;;;1.50;;
13588;SDS011;6865;52.552;13.434;2023-04-03T13:06:58;2.43;;;1.30;;
13588;SDS011;6865;52.552;13.434;2023-04-03T13:09:26;1.50;;;0.97;;
13588;SDS011;6865;52.552;13.434;2023-04-03T13:12:08;4.47;;;1.20;;
13588;SDS011;6865;52.552;13.434;2023-04-03T13:14:38;2.37;;;1.07;;
13588;SDS011;6865;52.552;13.434;2023-04-03T13:17:14;2.00;;;1.13;;
13588;SDS011;6865;52.552;13.434;2023-04-03T13:19:42;2.37;;;1.20;;
13588;SDS011;6865;52.552;13.434;2023-04-03T13:25:10;4.10;;;1.20;;
13588;SDS011;6865;52.552;13.434;2023-04-03T13:27:39;2.50;;;1.00;;
13588;SDS011;6865;52.552;13.434;2023-04-03T13:30:22;1.47;;;1.07;;
13588;SDS011;6865;52.552;13.434;2023-04-03T13:32:53;2.43;;;1.30;;
13588;SDS011;6865;52.552;13.434;2023-04-03T13:35:28;3.37;;;1.20;;
13588;SDS011;6865;52.552;13.434;2023-04-03T13:38:07;2.57;;;1.23;;
13588;SDS011;6865;52.552;13.434;2023-04-03T13:40:56;1.93;;;1.23;;
13588;SDS011;6865;52.552;13.434;2023-04-03T13:43:30;1.93;;;1.10;;
13588;SDS011;6865;52.552;13.434;2023-04-03T13:48:35;2.07;;;1.17;;
13588;SDS011;6865;52.552;13.434;2023-04-03T13:51:07;1.70;;;1.00;;
13588;SDS011;6865;52.552;13.434;2023-04-03T13:53:47;2.20;;;1.10;;
13588;SDS011;6865;52.552;13.434;2023-04-03T13:56:18;3.13;;;1.23;;
13588;SDS011;6865;52.552;13.434;2023-04-03T14:01:54;5.33;;;1.30;;
13588;SDS011;6865;52.552;13.434;2023-04-03T14:07:03;3.30;;;1.20;;
13588;SDS011;6865;52.552;13.434;2023-04-03T14:09:29;3.93;;;1.37;;
13588;SDS011;6865;52.552;13.434;2023-04-03T14:11:59;3.30;;;1.20;;
13588;SDS011;6865;52.552;13.434;2023-04-03T14:14:32;1.53;;;1.20;;
13588;SDS011;6865;52.552;13.434;2023-04-03T14:17:01;1.90;;;1.10;;
13588;SDS011;6865;52.552;13.434;2023-04-03T14:19:50;2.07;;;1.00;;
13588;SDS011;6865;52.552;13.434;2023-04-03T14:22:20;2.20;;;1.30;;
13588;SDS011;6865;52.552;13.434;2023-04-03T14:24:49;3.27;;;1.40;;
13588;SDS011;6865;52.552;13.434;2023-04-03T14:27:19;3.00;;;1.33;;
13588;SDS011;6865;52.552;13.434;2023-04-03T14:29:46;2.13;;;1.30;;
13588;SDS011;6865;52.552;13.434;2023-04-03T14:32:15;2.30;;;1.50;;
13588;SDS011;6865;52.552;13.434;2023-04-03T14:34:43;2.57;;;1.10;;
13588;SDS011;6865;52.552;13.434;2023-04-03T14:37:15;4.60;;;1.20;;
13588;SDS011;6865;52.552;13.434;2023-04-03T14:39:48;3.20;;;1.63;;
13588;SDS011;6865;52.552;13.434;2023-04-03T14:42:18;3.50;;;1.50;;
13588;SDS011;6865;52.552;13.434;2023-04-03T14:44:46;1.60;;;1.30;;
13588;SDS011;6865;52.552;13.434;2023-04-03T14:47:14;4.77;;;1.40;;
13588;SDS011;6865;52.552;13.434;2023-04-03T14:49:56;2.30;;;1.37;;
13588;SDS011;6865;52.552;13.434;2023-04-03T14:52:26;3.40;;;1.73;;
13588;SDS011;6865;52.552;13.434;2023-04-03T14:54:57;2.47;;;1.77;;
13588;SDS011;6865;52.552;13.434;2023-04-03T14:57:25;4.67;;;1.57;;
13588;SDS011;6865;52.552;13.434;2023-04-03T14:59:54;4.53;;;1.53;;
13588;SDS011;6865;52.552;13.434;2023-04-03T15:02:34;3.80;;;1.70;;
13588;SDS011;6865;52.552;13.434;2023-04-03T15:05:04;4.10;;;1.60;;
13588;SDS011;6865;52.552;13.434;2023-04-03T15:07:34;2.70;;;1.50;;
13588;SDS011;6865;52.552;13.434;2023-04-03T15:10:09;2.87;;;1.80;;
13588;SDS011;6865;52.552;13.434;2023-04-03T15:12:51;4.33;;;1.43;;
13588;SDS011;6865;52.552;13.434;2023-04-03T15:15:18;3.60;;;1.33;;
13588;SDS011;6865;52.552;13.434;2023-04-03T15:17:47;3.10;;;1.60;;
13588;SDS011;6865;52.552;13.434;2023-04-03T15:20:21;3.20;;;1.50;;
13588;SDS011;6865;52.552;13.434;2023-04-03T15:22:50;2.77;;;1.27;;
13588;SDS011;6865;52.552;13.434;2023-04-03T15:25:16;3.30;;;1.70;;
13588;SDS011;6865;52.552;13.434;2023-04-03T15:27:44;3.00;;;1.20;;
13588;SDS011;6865;52.552;13.434;2023-04-03T15:30:13;4.17;;;1.37;;
13588;SDS011;6865;52.552;13.434;2023-04-03T15:32:42;4.37;;;1.63;;
13588;SDS011;6865;52.552;13.434;2023-04-03T15:35:08;3.23;;;1.50;;
13588;SDS011;6865;52.552;13.434;2023-04-03T15:37:35;2.37;;;1.20;;
13588;SDS011;6865;52.552;13.434;2023-04-03T15:40:03;2.03;;;1.00;;
13588;SDS011;6865;52.552;13.434;2023-04-03T15:42:31;4.83;;;1.60;;
13588;SDS011;6865;52.552;13.434;2023-04-03T15:44:57;6.53;;;2.00;;
13588;SDS011;6865;52.552;13.434;2023-04-03T15:47:25;3.70;;;1.30;;
13588;SDS011;6865;52.552;13.434;2023-04-03T15:49:53;1.67;;;1.23;;
13588;SDS011;6865;52.552;13.434;2023-04-03T15:52:20;3.63;;;1.50;;
13588;SDS011;6865;52.552;13.434;2023-04-03T15:54:47;4.53;;;1.77;;
13588;SDS011;6865;52.552;13.434;2023-04-03T15:57:13;4.63;;;1.50;;
13588;SDS011;6865;52.552;13.434;2023-04-03T15:59:40;2.40;;;1.93;;
13588;SDS011;6865;52.552;13.434;2023-04-03T16:02:07;5.83;;;1.30;;
13588;SDS011;6865;52.552;13.434;2023-04-03T16:04:36;2.67;;;1.30;;
13588;SDS011;6865;52.552;13.434;2023-04-03T16:07:03;3.67;;;1.93;;
13588;SDS011;6865;52.552;13.434;2023-04-03T16:09:31;3.23;;;1.60;;
13588;SDS011;6865;52.552;13.434;2023-04-03T16:12:00;5.50;;;1.43;;
13588;SDS011;6865;52.552;13.434;2023-04-03T16:14:28;1.43;;;1.20;;